Rechercher aéroport 
image banner adimage banner adimage banner ad
image banner ad

PS57 - Mount Nittany Medical Center

Situé à State College, United States

ICAO - PS57, IATA -

Données fournies par Airmate  

Information générale

Coordonnées: N40°49'10" W77°50'35"
Élévation : 1152 feet MSL.
Variation magnétique : -11° East
Voir autres Aéroports à Pennsylvania

Données opérationnelles

Special qualification required
Heure actuelle UTC:
Heure actuelle locale:
Météo à : KUNV - University Park ( 3 km )
METAR: KUNV 150635Z AUTO 00000KT 4SM BR SCT070 SCT090 14/14 A2985 RMK AO2 T01350135
TAF: KUNV 150537Z 1506/1606 27005KT 5SM BR SCT001 TEMPO 1508/1512 1/2SM FG OVC001 FM151400 32010G20KT P6SM BKN040 FM160100 32007KT P6SM SCT035
Voir NOTAMs / SUP AIP / TFR affectant cet aéroport [VIEW]
Fréquences de communication: [VIEW]

Pistes:

Coordonnées de l'aéroport

Adresse: State College United States

Vue satellite de PS57